sensor_id;sensor_type;location;lat;lon;timestamp;temperature;humidity
15409;DHT22;7803;48.130;13.788;2023-08-20T00:02:53;26.20;99.90
15409;DHT22;7803;48.130;13.788;2023-08-20T00:05:57;26.20;99.90
15409;DHT22;7803;48.130;13.788;2023-08-20T00:08:59;26.20;99.90
15409;DHT22;7803;48.130;13.788;2023-08-20T00:12:03;26.20;99.90
15409;DHT22;7803;48.130;13.788;2023-08-20T00:15:06;26.20;99.90
15409;DHT22;7803;48.130;13.788;2023-08-20T00:18:11;26.20;99.90
15409;DHT22;7803;48.130;13.788;2023-08-20T00:21:14;26.20;99.90
15409;DHT22;7803;48.130;13.788;2023-08-20T00:24:17;26.20;99.90
15409;DHT22;7803;48.130;13.788;2023-08-20T00:27:19;26.20;99.90
15409;DHT22;7803;48.130;13.788;2023-08-20T00:30:21;26.20;99.90
15409;DHT22;7803;48.130;13.788;2023-08-20T00:33:25;26.20;99.90
15409;DHT22;7803;48.130;13.788;2023-08-20T00:36:27;26.10;99.90
15409;DHT22;7803;48.130;13.788;2023-08-20T00:39:29;26.10;99.90
15409;DHT22;7803;48.130;13.788;2023-08-20T00:42:31;26.10;99.90
15409;DHT22;7803;48.130;13.788;2023-08-20T00:45:34;26.10;99.90
15409;DHT22;7803;48.130;13.788;2023-08-20T00:48:37;26.10;99.90
15409;DHT22;7803;48.130;13.788;2023-08-20T00:51:39;26.10;99.90
15409;DHT22;7803;48.130;13.788;2023-08-20T00:54:41;26.10;99.90
15409;DHT22;7803;48.130;13.788;2023-08-20T00:57:46;26.10;99.90
15409;DHT22;7803;48.130;13.788;2023-08-20T01:00:48;26.10;99.90
15409;DHT22;7803;48.130;13.788;2023-08-20T01:03:51;26.10;99.90
15409;DHT22;7803;48.130;13.788;2023-08-20T01:07:10;26.10;99.90
15409;DHT22;7803;48.130;13.788;2023-08-20T01:10:18;26.10;99.90
15409;DHT22;7803;48.130;13.788;2023-08-20T01:13:21;26.00;99.90
15409;DHT22;7803;48.130;13.788;2023-08-20T01:16:23;26.10;99.90
15409;DHT22;7803;48.130;13.788;2023-08-20T01:19:26;26.10;99.90
15409;DHT22;7803;48.130;13.788;2023-08-20T01:22:51;26.10;99.90
15409;DHT22;7803;48.130;13.788;2023-08-20T01:26:17;26.10;99.90
15409;DHT22;7803;48.130;13.788;2023-08-20T01:29:25;26.10;99.90
15409;DHT22;7803;48.130;13.788;2023-08-20T01:32:27;26.00;99.90
15409;DHT22;7803;48.130;13.788;2023-08-20T01:35:30;26.00;99.90
15409;DHT22;7803;48.130;13.788;2023-08-20T01:38:32;26.00;99.90
15409;DHT22;7803;48.130;13.788;2023-08-20T01:41:34;26.00;99.90
15409;DHT22;7803;48.130;13.788;2023-08-20T01:44:38;26.00;99.90
15409;DHT22;7803;48.130;13.788;2023-08-20T01:47:40;26.00;99.90
15409;DHT22;7803;48.130;13.788;2023-08-20T01:50:41;26.00;99.90
15409;DHT22;7803;48.130;13.788;2023-08-20T01:53:44;26.00;99.90
15409;DHT22;7803;48.130;13.788;2023-08-20T01:56:46;26.00;99.90
15409;DHT22;7803;48.130;13.788;2023-08-20T01:59:49;26.00;99.90
15409;DHT22;7803;48.130;13.788;2023-08-20T02:02:51;26.00;99.90
15409;DHT22;7803;48.130;13.788;2023-08-20T02:05:53;26.00;99.90
15409;DHT22;7803;48.130;13.788;2023-08-20T02:08:55;26.00;99.90
15409;DHT22;7803;48.130;13.788;2023-08-20T02:11:58;25.90;99.90
15409;DHT22;7803;48.130;13.788;2023-08-20T02:15:01;25.90;99.90
15409;DHT22;7803;48.130;13.788;2023-08-20T02:18:04;25.90;99.90
15409;DHT22;7803;48.130;13.788;2023-08-20T02:21:06;25.90;99.90
15409;DHT22;7803;48.130;13.788;2023-08-20T02:24:08;25.90;99.90
15409;DHT22;7803;48.130;13.788;2023-08-20T02:27:10;25.90;99.90
15409;DHT22;7803;48.130;13.788;2023-08-20T02:30:14;26.00;99.90
15409;DHT22;7803;48.130;13.788;2023-08-20T02:33:16;25.90;99.90
15409;DHT22;7803;48.130;13.788;2023-08-20T02:36:18;26.00;99.90
15409;DHT22;7803;48.130;13.788;2023-08-20T02:39:20;25.90;99.90
15409;DHT22;7803;48.130;13.788;2023-08-20T02:42:22;25.90;99.90
15409;DHT22;7803;48.130;13.788;2023-08-20T02:45:39;25.90;99.90
15409;DHT22;7803;48.130;13.788;2023-08-20T02:48:42;25.90;99.90
15409;DHT22;7803;48.130;13.788;2023-08-20T02:51:43;25.90;99.90
15409;DHT22;7803;48.130;13.788;2023-08-20T02:54:45;25.90;99.90
15409;DHT22;7803;48.130;13.788;2023-08-20T02:57:47;25.90;99.90
15409;DHT22;7803;48.130;13.788;2023-08-20T03:00:51;25.90;99.90
15409;DHT22;7803;48.130;13.788;2023-08-20T03:03:53;25.80;99.90
15409;DHT22;7803;48.130;13.788;2023-08-20T03:06:55;25.90;99.90
15409;DHT22;7803;48.130;13.788;2023-08-20T03:09:57;25.80;99.90
15409;DHT22;7803;48.130;13.788;2023-08-20T03:12:59;25.80;99.90
15409;DHT22;7803;48.130;13.788;2023-08-20T03:16:03;25.90;99.90
15409;DHT22;7803;48.130;13.788;2023-08-20T03:19:05;25.80;99.90
15409;DHT22;7803;48.130;13.788;2023-08-20T03:22:07;25.90;99.90
15409;DHT22;7803;48.130;13.788;2023-08-20T03:25:19;25.80;99.90
15409;DHT22;7803;48.130;13.788;2023-08-20T03:28:21;25.80;99.90
15409;DHT22;7803;48.130;13.788;2023-08-20T03:31:24;25.80;99.90
15409;DHT22;7803;48.130;13.788;2023-08-20T03:34:26;25.80;99.90
15409;DHT22;7803;48.130;13.788;2023-08-20T03:37:28;25.80;99.90
15409;DHT22;7803;48.130;13.788;2023-08-20T03:40:30;25.80;99.90
15409;DHT22;7803;48.130;13.788;2023-08-20T03:43:32;25.80;99.90
15409;DHT22;7803;48.130;13.788;2023-08-20T03:46:36;25.80;99.90
15409;DHT22;7803;48.130;13.788;2023-08-20T03:49:38;25.80;99.90
15409;DHT22;7803;48.130;13.788;2023-08-20T03:52:40;25.80;99.90
15409;DHT22;7803;48.130;13.788;2023-08-20T03:55:42;25.80;99.90
15409;DHT22;7803;48.130;13.788;2023-08-20T03:58:48;25.80;99.90
15409;DHT22;7803;48.130;13.788;2023-08-20T04:01:52;25.80;99.90
15409;DHT22;7803;48.130;13.788;2023-08-20T04:04:54;25.70;99.90
15409;DHT22;7803;48.130;13.788;2023-08-20T04:07:56;25.80;99.90
15409;DHT22;7803;48.130;13.788;2023-08-20T04:10:58;25.80;99.90
15409;DHT22;7803;48.130;13.788;2023-08-20T04:14:00;25.70;99.90
15409;DHT22;7803;48.130;13.788;2023-08-20T04:17:04;25.80;99.90
15409;DHT22;7803;48.130;13.788;2023-08-20T04:20:07;25.70;99.90
15409;DHT22;7803;48.130;13.788;2023-08-20T04:23:09;25.70;99.90
15409;DHT22;7803;48.130;13.788;2023-08-20T04:26:11;25.80;99.90
15409;DHT22;7803;48.130;13.788;2023-08-20T04:29:14;25.70;99.90
15409;DHT22;7803;48.130;13.788;2023-08-20T04:32:17;25.70;99.90
15409;DHT22;7803;48.130;13.788;2023-08-20T04:35:20;25.70;99.90
15409;DHT22;7803;48.130;13.788;2023-08-20T04:38:22;25.70;99.90
15409;DHT22;7803;48.130;13.788;2023-08-20T04:41:24;25.70;99.90
15409;DHT22;7803;48.130;13.788;2023-08-20T04:44:27;25.70;99.90
15409;DHT22;7803;48.130;13.788;2023-08-20T04:47:30;25.70;99.90
15409;DHT22;7803;48.130;13.788;2023-08-20T04:50:33;25.80;99.90
15409;DHT22;7803;48.130;13.788;2023-08-20T04:53:35;25.80;99.90
15409;DHT22;7803;48.130;13.788;2023-08-20T04:56:37;25.70;99.90
15409;DHT22;7803;48.130;13.788;2023-08-20T04:59:39;25.70;99.90
15409;DHT22;7803;48.130;13.788;2023-08-20T05:02:45;25.70;99.90
15409;DHT22;7803;48.130;13.788;2023-08-20T05:05:49;25.80;99.90
15409;DHT22;7803;48.130;13.788;2023-08-20T05:08:51;25.80;99.90
15409;DHT22;7803;48.130;13.788;2023-08-20T05:11:53;25.70;99.90
15409;DHT22;7803;48.130;13.788;2023-08-20T05:14:54;25.80;99.90
15409;DHT22;7803;48.130;13.788;2023-08-20T05:17:58;25.80;99.90
15409;DHT22;7803;48.130;13.788;2023-08-20T05:21:00;25.80;99.90
15409;DHT22;7803;48.130;13.788;2023-08-20T05:24:02;25.80;99.90
15409;DHT22;7803;48.130;13.788;2023-08-20T05:27:08;25.80;99.90
15409;DHT22;7803;48.130;13.788;2023-08-20T05:30:11;25.80;99.90
15409;DHT22;7803;48.130;13.788;2023-08-20T05:33:15;25.80;99.90
15409;DHT22;7803;48.130;13.788;2023-08-20T05:36:17;25.80;99.90
15409;DHT22;7803;48.130;13.788;2023-08-20T05:39:18;25.80;99.90
15409;DHT22;7803;48.130;13.788;2023-08-20T05:42:20;25.80;99.90
15409;DHT22;7803;48.130;13.788;2023-08-20T05:45:22;25.80;99.90
15409;DHT22;7803;48.130;13.788;2023-08-20T05:48:26;25.80;99.90
15409;DHT22;7803;48.130;13.788;2023-08-20T05:51:28;25.80;99.90
15409;DHT22;7803;48.130;13.788;2023-08-20T05:54:29;25.80;99.90
15409;DHT22;7803;48.130;13.788;2023-08-20T05:57:31;25.70;99.90
15409;DHT22;7803;48.130;13.788;2023-08-20T06:00:33;25.80;99.90
15409;DHT22;7803;48.130;13.788;2023-08-20T06:03:37;25.70;99.90
15409;DHT22;7803;48.130;13.788;2023-08-20T06:06:39;25.70;99.90
15409;DHT22;7803;48.130;13.788;2023-08-20T06:09:42;25.70;99.90
15409;DHT22;7803;48.130;13.788;2023-08-20T06:12:44;25.70;99.90
15409;DHT22;7803;48.130;13.788;2023-08-20T06:15:46;25.70;99.90
15409;DHT22;7803;48.130;13.788;2023-08-20T06:18:49;25.70;99.90
15409;DHT22;7803;48.130;13.788;2023-08-20T06:21:51;25.60;99.90
15409;DHT22;7803;48.130;13.788;2023-08-20T06:24:53;25.60;99.90
15409;DHT22;7803;48.130;13.788;2023-08-20T06:27:55;25.60;99.90
15409;DHT22;7803;48.130;13.788;2023-08-20T06:30:57;25.60;99.90
15409;DHT22;7803;48.130;13.788;2023-08-20T06:34:00;25.70;99.90
15409;DHT22;7803;48.130;13.788;2023-08-20T06:37:03;25.60;99.90
15409;DHT22;7803;48.130;13.788;2023-08-20T06:40:06;25.70;99.90
15409;DHT22;7803;48.130;13.788;2023-08-20T06:43:08;25.60;99.90
15409;DHT22;7803;48.130;13.788;2023-08-20T06:46:10;25.60;99.90
15409;DHT22;7803;48.130;13.788;2023-08-20T06:49:13;25.70;99.90
15409;DHT22;7803;48.130;13.788;2023-08-20T06:52:15;25.70;99.90
15409;DHT22;7803;48.130;13.788;2023-08-20T06:55:17;25.70;99.90
15409;DHT22;7803;48.130;13.788;2023-08-20T06:58:19;25.70;99.90
15409;DHT22;7803;48.130;13.788;2023-08-20T07:01:21;25.70;99.90
15409;DHT22;7803;48.130;13.788;2023-08-20T07:04:24;25.70;99.90
15409;DHT22;7803;48.130;13.788;2023-08-20T07:07:26;25.70;99.90
15409;DHT22;7803;48.130;13.788;2023-08-20T07:10:28;25.80;99.90
15409;DHT22;7803;48.130;13.788;2023-08-20T07:13:30;25.70;99.90
15409;DHT22;7803;48.130;13.788;2023-08-20T07:16:32;25.80;99.90
15409;DHT22;7803;48.130;13.788;2023-08-20T07:19:36;25.70;99.90
15409;DHT22;7803;48.130;13.788;2023-08-20T07:22:38;25.80;99.90
15409;DHT22;7803;48.130;13.788;2023-08-20T07:25:41;25.80;99.90
15409;DHT22;7803;48.130;13.788;2023-08-20T07:28:45;25.70;99.90
15409;DHT22;7803;48.130;13.788;2023-08-20T07:32:00;25.80;99.90
15409;DHT22;7803;48.130;13.788;2023-08-20T07:35:05;25.80;99.90
15409;DHT22;7803;48.130;13.788;2023-08-20T07:38:09;25.80;99.90
15409;DHT22;7803;48.130;13.788;2023-08-20T07:41:11;25.80;99.90
15409;DHT22;7803;48.130;13.788;2023-08-20T07:44:13;25.80;99.90
15409;DHT22;7803;48.130;13.788;2023-08-20T07:47:15;25.80;99.90
15409;DHT22;7803;48.130;13.788;2023-08-20T07:50:18;25.80;99.90
15409;DHT22;7803;48.130;13.788;2023-08-20T07:53:20;25.80;99.90
15409;DHT22;7803;48.130;13.788;2023-08-20T07:56:22;25.80;99.90
15409;DHT22;7803;48.130;13.788;2023-08-20T07:59:24;25.80;99.90
15409;DHT22;7803;48.130;13.788;2023-08-20T08:02:26;25.80;99.90
15409;DHT22;7803;48.130;13.788;2023-08-20T08:05:30;25.80;99.90
15409;DHT22;7803;48.130;13.788;2023-08-20T08:08:32;25.80;99.90
15409;DHT22;7803;48.130;13.788;2023-08-20T08:11:34;25.80;99.90
15409;DHT22;7803;48.130;13.788;2023-08-20T08:14:36;25.90;99.90
15409;DHT22;7803;48.130;13.788;2023-08-20T08:17:38;25.90;99.90
15409;DHT22;7803;48.130;13.788;2023-08-20T08:20:41;25.90;99.90
15409;DHT22;7803;48.130;13.788;2023-08-20T08:23:52;25.90;99.90
15409;DHT22;7803;48.130;13.788;2023-08-20T08:26:54;25.90;99.90
15409;DHT22;7803;48.130;13.788;2023-08-20T08:29:56;25.90;99.90
15409;DHT22;7803;48.130;13.788;2023-08-20T08:32:58;25.90;99.90
15409;DHT22;7803;48.130;13.788;2023-08-20T08:36:02;25.90;99.90
15409;DHT22;7803;48.130;13.788;2023-08-20T08:39:04;25.90;99.90
15409;DHT22;7803;48.130;13.788;2023-08-20T08:42:06;25.90;99.90
15409;DHT22;7803;48.130;13.788;2023-08-20T08:45:09;25.90;99.90
15409;DHT22;7803;48.130;13.788;2023-08-20T08:48:12;25.90;99.90
15409;DHT22;7803;48.130;13.788;2023-08-20T08:51:16;25.90;99.90
15409;DHT22;7803;48.130;13.788;2023-08-20T08:54:20;26.00;99.90
15409;DHT22;7803;48.130;13.788;2023-08-20T08:57:22;26.00;99.90
15409;DHT22;7803;48.130;13.788;2023-08-20T09:00:24;25.90;99.90
15409;DHT22;7803;48.130;13.788;2023-08-20T09:03:26;25.90;99.90
15409;DHT22;7803;48.130;13.788;2023-08-20T09:06:44;25.90;99.90
15409;DHT22;7803;48.130;13.788;2023-08-20T09:09:46;26.00;99.90
15409;DHT22;7803;48.130;13.788;2023-08-20T09:12:50;25.90;99.90
15409;DHT22;7803;48.130;13.788;2023-08-20T09:15:52;25.90;99.90
15409;DHT22;7803;48.130;13.788;2023-08-20T09:18:54;25.90;99.90
15409;DHT22;7803;48.130;13.788;2023-08-20T09:21:58;26.00;99.90
15409;DHT22;7803;48.130;13.788;2023-08-20T09:25:00;26.00;99.90
15409;DHT22;7803;48.130;13.788;2023-08-20T09:28:03;26.00;99.90
15409;DHT22;7803;48.130;13.788;2023-08-20T09:31:05;25.90;99.90
15409;DHT22;7803;48.130;13.788;2023-08-20T09:34:12;26.00;99.90
15409;DHT22;7803;48.130;13.788;2023-08-20T09:37:18;26.00;99.90
15409;DHT22;7803;48.130;13.788;2023-08-20T09:40:20;26.00;99.90
15409;DHT22;7803;48.130;13.788;2023-08-20T09:43:24;25.90;99.90
15409;DHT22;7803;48.130;13.788;2023-08-20T09:46:31;26.00;99.90
15409;DHT22;7803;48.130;13.788;2023-08-20T09:49:38;25.90;99.90
15409;DHT22;7803;48.130;13.788;2023-08-20T09:52:46;26.00;99.90
15409;DHT22;7803;48.130;13.788;2023-08-20T09:55:51;26.00;99.90
15409;DHT22;7803;48.130;13.788;2023-08-20T09:58:54;26.00;99.90
15409;DHT22;7803;48.130;13.788;2023-08-20T10:01:56;26.00;99.90
15409;DHT22;7803;48.130;13.788;2023-08-20T10:04:59;26.00;99.90
15409;DHT22;7803;48.130;13.788;2023-08-20T10:08:04;26.00;99.90
15409;DHT22;7803;48.130;13.788;2023-08-20T10:11:07;26.00;99.90
15409;DHT22;7803;48.130;13.788;2023-08-20T10:14:09;26.00;99.90
15409;DHT22;7803;48.130;13.788;2023-08-20T10:17:12;26.00;99.90
15409;DHT22;7803;48.130;13.788;2023-08-20T10:20:17;26.00;99.90
15409;DHT22;7803;48.130;13.788;2023-08-20T10:23:22;26.00;99.90
15409;DHT22;7803;48.130;13.788;2023-08-20T10:26:24;26.00;99.90
15409;DHT22;7803;48.130;13.788;2023-08-20T10:29:35;26.00;99.90
15409;DHT22;7803;48.130;13.788;2023-08-20T10:32:47;26.00;99.90
15409;DHT22;7803;48.130;13.788;2023-08-20T10:35:49;26.00;99.90
15409;DHT22;7803;48.130;13.788;2023-08-20T10:38:54;26.00;99.90
15409;DHT22;7803;48.130;13.788;2023-08-20T10:42:22;26.00;99.90
15409;DHT22;7803;48.130;13.788;2023-08-20T10:45:26;26.00;99.90
15409;DHT22;7803;48.130;13.788;2023-08-20T10:48:28;26.00;99.90
15409;DHT22;7803;48.130;13.788;2023-08-20T10:51:33;26.00;99.90
15409;DHT22;7803;48.130;13.788;2023-08-20T10:54:36;26.00;99.90
15409;DHT22;7803;48.130;13.788;2023-08-20T10:57:39;26.00;99.90
15409;DHT22;7803;48.130;13.788;2023-08-20T11:00:41;26.10;99.90
15409;DHT22;7803;48.130;13.788;2023-08-20T11:03:44;26.00;99.90
15409;DHT22;7803;48.130;13.788;2023-08-20T11:06:49;26.00;99.90
15409;DHT22;7803;48.130;13.788;2023-08-20T11:09:53;26.00;99.90
15409;DHT22;7803;48.130;13.788;2023-08-20T11:12:56;26.00;99.90
15409;DHT22;7803;48.130;13.788;2023-08-20T11:15:58;26.00;99.90
15409;DHT22;7803;48.130;13.788;2023-08-20T11:19:00;26.10;99.90
15409;DHT22;7803;48.130;13.788;2023-08-20T11:22:06;26.10;99.90
15409;DHT22;7803;48.130;13.788;2023-08-20T11:25:12;26.10;99.90
15409;DHT22;7803;48.130;13.788;2023-08-20T11:28:14;26.00;99.90
15409;DHT22;7803;48.130;13.788;2023-08-20T11:31:16;26.10;99.90
15409;DHT22;7803;48.130;13.788;2023-08-20T11:34:19;26.00;99.90
15409;DHT22;7803;48.130;13.788;2023-08-20T11:37:21;26.00;99.90
15409;DHT22;7803;48.130;13.788;2023-08-20T11:40:24;26.10;99.90
15409;DHT22;7803;48.130;13.788;2023-08-20T11:43:27;26.10;99.90
15409;DHT22;7803;48.130;13.788;2023-08-20T11:46:29;26.00;99.90
15409;DHT22;7803;48.130;13.788;2023-08-20T11:49:31;26.10;99.90
15409;DHT22;7803;48.130;13.788;2023-08-20T11:52:35;26.00;99.90
15409;DHT22;7803;48.130;13.788;2023-08-20T11:55:39;26.10;99.90
15409;DHT22;7803;48.130;13.788;2023-08-20T11:58:42;26.10;99.90
15409;DHT22;7803;48.130;13.788;2023-08-20T12:01:51;26.10;99.90
15409;DHT22;7803;48.130;13.788;2023-08-20T12:04:55;26.10;99.90
15409;DHT22;7803;48.130;13.788;2023-08-20T12:08:00;26.10;99.90
15409;DHT22;7803;48.130;13.788;2023-08-20T12:11:03;26.10;99.90
15409;DHT22;7803;48.130;13.788;2023-08-20T12:14:05;26.10;99.90
15409;DHT22;7803;48.130;13.788;2023-08-20T12:17:07;26.10;99.90
15409;DHT22;7803;48.130;13.788;2023-08-20T12:20:10;26.10;99.90
15409;DHT22;7803;48.130;13.788;2023-08-20T12:23:13;26.10;99.90
15409;DHT22;7803;48.130;13.788;2023-08-20T12:26:16;26.10;99.90
15409;DHT22;7803;48.130;13.788;2023-08-20T12:29:18;26.10;99.90
15409;DHT22;7803;48.130;13.788;2023-08-20T12:32:20;26.10;99.90
15409;DHT22;7803;48.130;13.788;2023-08-20T12:35:22;26.10;99.90
15409;DHT22;7803;48.130;13.788;2023-08-20T12:38:25;26.10;99.90
15409;DHT22;7803;48.130;13.788;2023-08-20T12:41:28;26.20;99.90
15409;DHT22;7803;48.130;13.788;2023-08-20T12:44:30;26.20;99.90
15409;DHT22;7803;48.130;13.788;2023-08-20T12:47:32;26.10;99.90
15409;DHT22;7803;48.130;13.788;2023-08-20T12:50:34;26.10;99.90
15409;DHT22;7803;48.130;13.788;2023-08-20T12:53:36;26.10;99.90
15409;DHT22;7803;48.130;13.788;2023-08-20T12:56:39;26.10;99.90
15409;DHT22;7803;48.130;13.788;2023-08-20T12:59:41;26.20;99.90
15409;DHT22;7803;48.130;13.788;2023-08-20T13:02:45;26.10;99.90
15409;DHT22;7803;48.130;13.788;2023-08-20T13:05:49;26.10;99.90
15409;DHT22;7803;48.130;13.788;2023-08-20T13:08:52;26.10;99.90
15409;DHT22;7803;48.130;13.788;2023-08-20T13:11:57;26.20;99.90
15409;DHT22;7803;48.130;13.788;2023-08-20T13:15:03;26.10;99.90
15409;DHT22;7803;48.130;13.788;2023-08-20T13:18:07;26.20;99.90
15409;DHT22;7803;48.130;13.788;2023-08-20T13:21:09;26.10;99.90
15409;DHT22;7803;48.130;13.788;2023-08-20T13:24:12;26.10;99.90
15409;DHT22;7803;48.130;13.788;2023-08-20T13:27:16;26.20;99.90
15409;DHT22;7803;48.130;13.788;2023-08-20T13:30:19;26.20;99.90
15409;DHT22;7803;48.130;13.788;2023-08-20T13:33:21;26.10;99.90
15409;DHT22;7803;48.130;13.788;2023-08-20T13:36:23;26.20;99.90
15409;DHT22;7803;48.130;13.788;2023-08-20T13:39:26;26.10;99.90
15409;DHT22;7803;48.130;13.788;2023-08-20T13:42:30;26.20;99.90
15409;DHT22;7803;48.130;13.788;2023-08-20T13:45:33;26.10;99.90
15409;DHT22;7803;48.130;13.788;2023-08-20T13:48:36;26.10;99.90
15409;DHT22;7803;48.130;13.788;2023-08-20T13:51:38;26.20;99.90
15409;DHT22;7803;48.130;13.788;2023-08-20T13:54:41;26.20;99.90
15409;DHT22;7803;48.130;13.788;2023-08-20T13:57:45;26.10;99.90
15409;DHT22;7803;48.130;13.788;2023-08-20T14:00:48;26.20;99.90
15409;DHT22;7803;48.130;13.788;2023-08-20T14:03:52;26.20;99.90
15409;DHT22;7803;48.130;13.788;2023-08-20T14:06:55;26.20;99.90
15409;DHT22;7803;48.130;13.788;2023-08-20T14:09:58;26.20;99.90
15409;DHT22;7803;48.130;13.788;2023-08-20T14:13:03;26.20;99.90
15409;DHT22;7803;48.130;13.788;2023-08-20T14:16:07;26.20;99.90
15409;DHT22;7803;48.130;13.788;2023-08-20T14:19:10;26.20;99.90
15409;DHT22;7803;48.130;13.788;2023-08-20T14:22:13;26.20;99.90
15409;DHT22;7803;48.130;13.788;2023-08-20T14:25:15;26.20;99.90
15409;DHT22;7803;48.130;13.788;2023-08-20T14:28:19;26.20;99.90
15409;DHT22;7803;48.130;13.788;2023-08-20T14:31:21;26.20;99.90
15409;DHT22;7803;48.130;13.788;2023-08-20T14:34:24;26.20;99.90
15409;DHT22;7803;48.130;13.788;2023-08-20T14:37:26;26.20;99.90
15409;DHT22;7803;48.130;13.788;2023-08-20T14:40:30;26.20;99.90
15409;DHT22;7803;48.130;13.788;2023-08-20T14:43:36;26.20;99.90
15409;DHT22;7803;48.130;13.788;2023-08-20T14:46:38;26.20;99.90
15409;DHT22;7803;48.130;13.788;2023-08-20T14:49:40;26.20;99.90
15409;DHT22;7803;48.130;13.788;2023-08-20T14:52:43;26.20;99.90
15409;DHT22;7803;48.130;13.788;2023-08-20T14:55:49;26.20;99.90
15409;DHT22;7803;48.130;13.788;2023-08-20T14:58:53;26.20;99.90
15409;DHT22;7803;48.130;13.788;2023-08-20T15:01:56;26.20;99.90
15409;DHT22;7803;48.130;13.788;2023-08-20T15:04:59;26.20;99.90
15409;DHT22;7803;48.130;13.788;2023-08-20T15:08:02;26.20;99.90
15409;DHT22;7803;48.130;13.788;2023-08-20T15:11:05;26.20;99.90
15409;DHT22;7803;48.130;13.788;2023-08-20T15:14:09;26.20;99.90
15409;DHT22;7803;48.130;13.788;2023-08-20T15:17:11;26.20;99.90
15409;DHT22;7803;48.130;13.788;2023-08-20T15:20:14;26.20;99.90
15409;DHT22;7803;48.130;13.788;2023-08-20T15:23:16;26.20;99.90
15409;DHT22;7803;48.130;13.788;2023-08-20T15:26:18;26.20;99.90
15409;DHT22;7803;48.130;13.788;2023-08-20T15:29:22;26.20;99.90
15409;DHT22;7803;48.130;13.788;2023-08-20T15:32:25;26.30;99.90
15409;DHT22;7803;48.130;13.788;2023-08-20T15:35:29;26.20;99.90
15409;DHT22;7803;48.130;13.788;2023-08-20T15:38:32;26.20;99.90
15409;DHT22;7803;48.130;13.788;2023-08-20T15:41:36;26.20;99.90
15409;DHT22;7803;48.130;13.788;2023-08-20T15:44:40;26.20;99.90
15409;DHT22;7803;48.130;13.788;2023-08-20T15:47:43;26.20;99.90
15409;DHT22;7803;48.130;13.788;2023-08-20T15:50:45;26.20;99.90
15409;DHT22;7803;48.130;13.788;2023-08-20T15:53:48;26.30;99.90
15409;DHT22;7803;48.130;13.788;2023-08-20T15:56:50;26.30;99.90
15409;DHT22;7803;48.130;13.788;2023-08-20T15:59:54;26.30;99.90
15409;DHT22;7803;48.130;13.788;2023-08-20T16:02:57;26.30;99.90
15409;DHT22;7803;48.130;13.788;2023-08-20T16:06:00;26.30;99.90
15409;DHT22;7803;48.130;13.788;2023-08-20T16:09:03;26.30;99.90
15409;DHT22;7803;48.130;13.788;2023-08-20T16:12:09;26.30;99.90
15409;DHT22;7803;48.130;13.788;2023-08-20T16:15:13;26.30;99.90
15409;DHT22;7803;48.130;13.788;2023-08-20T16:18:16;26.30;99.90
15409;DHT22;7803;48.130;13.788;2023-08-20T16:21:19;26.40;99.90
15409;DHT22;7803;48.130;13.788;2023-08-20T16:24:23;26.30;99.90
15409;DHT22;7803;48.130;13.788;2023-08-20T16:27:25;26.30;99.90
15409;DHT22;7803;48.130;13.788;2023-08-20T16:30:29;26.40;99.90
15409;DHT22;7803;48.130;13.788;2023-08-20T16:33:32;26.30;99.90
15409;DHT22;7803;48.130;13.788;2023-08-20T16:36:35;26.30;99.90
15409;DHT22;7803;48.130;13.788;2023-08-20T16:39:38;26.40;99.90
15409;DHT22;7803;48.130;13.788;2023-08-20T16:42:41;26.40;99.90
15409;DHT22;7803;48.130;13.788;2023-08-20T16:45:46;26.40;99.90
15409;DHT22;7803;48.130;13.788;2023-08-20T16:48:49;26.40;99.90
15409;DHT22;7803;48.130;13.788;2023-08-20T16:51:52;26.40;99.90
15409;DHT22;7803;48.130;13.788;2023-08-20T16:54:56;26.40;99.90
15409;DHT22;7803;48.130;13.788;2023-08-20T16:57:59;26.40;99.90
15409;DHT22;7803;48.130;13.788;2023-08-20T17:01:04;26.40;99.90
15409;DHT22;7803;48.130;13.788;2023-08-20T17:04:08;26.40;99.90
15409;DHT22;7803;48.130;13.788;2023-08-20T17:07:11;26.40;99.90
15409;DHT22;7803;48.130;13.788;2023-08-20T17:10:14;26.50;99.90
15409;DHT22;7803;48.130;13.788;2023-08-20T17:13:18;26.50;99.90
15409;DHT22;7803;48.130;13.788;2023-08-20T17:16:23;26.40;99.90
15409;DHT22;7803;48.130;13.788;2023-08-20T17:19:27;26.50;99.90
15409;DHT22;7803;48.130;13.788;2023-08-20T17:22:30;26.50;99.90
15409;DHT22;7803;48.130;13.788;2023-08-20T17:25:34;26.50;99.90
15409;DHT22;7803;48.130;13.788;2023-08-20T17:28:37;26.50;99.90
15409;DHT22;7803;48.130;13.788;2023-08-20T17:31:42;26.50;99.90
15409;DHT22;7803;48.130;13.788;2023-08-20T17:34:45;26.50;99.90
15409;DHT22;7803;48.130;13.788;2023-08-20T17:37:49;26.50;99.90
15409;DHT22;7803;48.130;13.788;2023-08-20T17:40:52;26.50;99.90
15409;DHT22;7803;48.130;13.788;2023-08-20T17:43:56;26.50;99.90
15409;DHT22;7803;48.130;13.788;2023-08-20T17:47:01;26.50;99.90
15409;DHT22;7803;48.130;13.788;2023-08-20T17:50:05;26.50;99.90
15409;DHT22;7803;48.130;13.788;2023-08-20T17:53:10;26.50;99.90
15409;DHT22;7803;48.130;13.788;2023-08-20T17:56:13;26.50;99.90
15409;DHT22;7803;48.130;13.788;2023-08-20T17:59:18;26.50;99.90
15409;DHT22;7803;48.130;13.788;2023-08-20T18:02:23;26.50;99.90
15409;DHT22;7803;48.130;13.788;2023-08-20T18:05:27;26.50;99.90
15409;DHT22;7803;48.130;13.788;2023-08-20T18:08:31;26.60;99.90
15409;DHT22;7803;48.130;13.788;2023-08-20T18:11:34;26.50;99.90
15409;DHT22;7803;48.130;13.788;2023-08-20T18:14:40;26.50;99.90
15409;DHT22;7803;48.130;13.788;2023-08-20T18:17:45;26.60;99.90
15409;DHT22;7803;48.130;13.788;2023-08-20T18:20:49;26.50;99.90
15409;DHT22;7803;48.130;13.788;2023-08-20T18:23:53;26.50;99.90
15409;DHT22;7803;48.130;13.788;2023-08-20T18:26:57;26.60;99.90
15409;DHT22;7803;48.130;13.788;2023-08-20T18:30:01;26.50;99.90
15409;DHT22;7803;48.130;13.788;2023-08-20T18:33:08;26.50;99.90
15409;DHT22;7803;48.130;13.788;2023-08-20T18:36:12;26.50;99.90
15409;DHT22;7803;48.130;13.788;2023-08-20T18:39:16;26.50;99.90
15409;DHT22;7803;48.130;13.788;2023-08-20T18:42:21;26.50;99.90
15409;DHT22;7803;48.130;13.788;2023-08-20T18:45:25;26.50;99.90
15409;DHT22;7803;48.130;13.788;2023-08-20T18:48:30;26.40;99.90
15409;DHT22;7803;48.130;13.788;2023-08-20T18:51:34;26.30;99.90
15409;DHT22;7803;48.130;13.788;2023-08-20T18:54:38;26.30;99.90
15409;DHT22;7803;48.130;13.788;2023-08-20T18:57:44;26.30;99.90
15409;DHT22;7803;48.130;13.788;2023-08-20T19:00:48;26.30;99.90
15409;DHT22;7803;48.130;13.788;2023-08-20T19:03:54;26.30;99.90
15409;DHT22;7803;48.130;13.788;2023-08-20T19:06:58;26.40;99.90
15409;DHT22;7803;48.130;13.788;2023-08-20T19:10:06;26.40;99.90
15409;DHT22;7803;48.130;13.788;2023-08-20T19:13:10;26.50;99.90
15409;DHT22;7803;48.130;13.788;2023-08-20T19:16:14;26.40;99.90
15409;DHT22;7803;48.130;13.788;2023-08-20T19:19:20;26.40;99.90